Time;durP1;ratioP1;P1;durP2;ratioP2;P2;SDS_P1;SDS_P2;PMS_P1;PMS_P2;Temp;Humidity;BMP_temperature;BMP_pressure;BME280_temperature;BME280_humidity;BME280_pressure;Samples;Min_cycle;Max_cycle;Signal;HPM_P1;HPM_P2
2023/01/19 05:05:51;;;;;;;5.07;4.53;;;-1.40;99.90;;;;;;5102136;22;20234;-58
2023/01/19 05:08:17;;;;;;;4.90;3.77;;;-1.40;99.90;;;;;;5034193;28;20175;-61
2023/01/19 05:10:42;;;;;;;4.43;3.57;;;-1.50;99.90;;;;;;5034645;28;20667;-62
2023/01/19 05:13:08;;;;;;;5.50;4.27;;;-1.50;99.90;;;;;;5033616;28;20170;-62
2023/01/19 05:15:33;;;;;;;5.27;4.63;;;-1.50;99.90;;;;;;5016425;28;20191;-60
2023/01/19 05:17:59;;;;;;;6.17;5.63;;;-1.60;99.90;;;;;;5034176;28;20166;-61
2023/01/19 05:20:25;;;;;;;5.43;4.17;;;-1.60;99.90;;;;;;5034069;28;20661;-59
2023/01/19 05:22:52;;;;;;;5.33;4.67;;;-1.70;99.90;;;;;;5034063;28;20175;-61
2023/01/19 05:25:18;;;;;;;5.07;4.15;;;-1.70;99.90;;;;;;5033713;28;20664;-62
2023/01/19 05:27:44;;;;;;;7.68;3.83;;;-1.80;99.90;;;;;;5034057;28;20212;-61
2023/01/19 05:30:11;;;;;;;3.90;3.40;;;-1.80;99.90;;;;;;5033881;28;20307;-61
2023/01/19 05:32:36;;;;;;;4.25;3.85;;;-1.80;99.90;;;;;;5032803;28;20509;-60
2023/01/19 05:35:02;;;;;;;3.87;3.47;;;-1.80;99.90;;;;;;5031836;28;20233;-60
2023/01/19 05:37:27;;;;;;;7.40;3.73;;;-1.80;99.90;;;;;;5033476;28;20596;-64
2023/01/19 05:39:53;;;;;;;5.10;4.60;;;-1.80;99.90;;;;;;5033436;28;20175;-61
2023/01/19 05:42:19;;;;;;;8.10;5.57;;;-1.80;99.90;;;;;;5033711;28;20268;-61
2023/01/19 05:44:45;;;;;;;5.03;3.70;;;-1.80;99.90;;;;;;5033045;28;20205;-62
2023/01/19 05:47:10;;;;;;;4.77;4.30;;;-1.80;99.90;;;;;;5033431;28;20412;-61
2023/01/19 05:49:36;;;;;;;13.03;5.43;;;-1.90;99.90;;;;;;5033144;28;20198;-61
2023/01/19 05:52:01;;;;;;;4.90;4.33;;;-1.80;99.90;;;;;;5033283;28;20197;-62
2023/01/19 05:54:27;;;;;;;5.13;4.60;;;-1.80;99.90;;;;;;5033029;28;20235;-61
2023/01/19 05:56:52;;;;;;;11.07;4.97;;;-1.80;99.90;;;;;;5033692;28;20170;-63
2023/01/19 05:59:22;;;;;;;6.63;3.03;;;-1.70;99.90;;;;;;5033356;28;20159;-58
2023/01/19 06:01:51;;;;;;;7.32;5.65;;;-1.60;99.90;;;;;;5033244;28;20594;-61
2023/01/19 06:04:18;;;;;;;8.63;6.18;;;-1.50;99.90;;;;;;5032938;28;20193;-60
2023/01/19 06:06:43;;;;;;;5.05;4.45;;;-1.40;99.90;;;;;;5033197;28;20203;-62
2023/01/19 06:09:09;;;;;;;6.70;4.23;;;-1.30;99.90;;;;;;5033369;28;20644;-62
2023/01/19 06:11:35;;;;;;;7.60;4.87;;;-1.30;99.90;;;;;;5033449;28;20176;-64
2023/01/19 06:14:00;;;;;;;10.13;6.27;;;-1.30;99.90;;;;;;5032435;28;20585;-61
2023/01/19 06:16:26;;;;;;;5.20;4.50;;;-1.30;99.90;;;;;;5039497;28;20161;-60
2023/01/19 06:18:52;;;;;;;8.77;6.93;;;-1.30;99.90;;;;;;5052979;28;20186;-61
2023/01/19 06:21:18;;;;;;;8.30;6.70;;;-1.40;99.90;;;;;;5039761;28;20177;-58
2023/01/19 06:23:43;;;;;;;6.53;5.93;;;-1.40;99.90;;;;;;5032811;28;20436;-59
2023/01/19 06:26:09;;;;;;;6.77;4.33;;;-1.50;99.90;;;;;;5034803;28;20181;-60
2023/01/19 06:28:35;;;;;;;8.57;5.60;;;-1.50;99.90;;;;;;5019480;28;20205;-60
2023/01/19 06:31:00;;;;;;;4.80;4.30;;;-1.60;99.90;;;;;;5036946;28;20450;-59
2023/01/19 06:33:27;;;;;;;6.20;5.33;;;-1.60;99.90;;;;;;5036503;28;20171;-60
2023/01/19 06:35:52;;;;;;;5.05;4.63;;;-1.60;99.90;;;;;;5036981;28;20197;-61
2023/01/19 06:38:18;;;;;;;6.23;4.10;;;-1.60;99.90;;;;;;5036949;28;20194;-61
2023/01/19 06:40:50;;;;;;;3.90;3.60;;;-1.70;99.90;;;;;;5037004;28;20672;-63
2023/01/19 06:43:15;;;;;;;3.67;3.00;;;-1.70;99.90;;;;;;5036669;28;20412;-63
2023/01/19 06:45:41;;;;;;;5.97;4.53;;;-1.70;99.90;;;;;;5036409;28;20196;-61
2023/01/19 06:48:07;;;;;;;7.23;4.37;;;-1.70;99.90;;;;;;5036612;28;20674;-59
2023/01/19 06:50:33;;;;;;;3.88;3.55;;;-1.80;99.90;;;;;;5036624;28;20200;-64
2023/01/19 06:52:59;;;;;;;7.93;4.32;;;-1.80;99.90;;;;;;5036218;28;20189;-62
2023/01/19 06:55:24;;;;;;;4.30;3.90;;;-1.90;99.90;;;;;;5036965;28;20283;-63
2023/01/19 06:57:57;;;;;;;9.25;6.78;;;-1.90;99.90;;;;;;5035873;28;20416;-63
2023/01/19 07:00:23;;;;;;;5.50;4.70;;;-1.80;99.90;;;;;;5036272;28;20171;-63
2023/01/19 07:02:49;;;;;;;6.63;5.07;;;-1.80;99.90;;;;;;5036373;28;20612;-62
2023/01/19 07:05:15;;;;;;;9.17;5.23;;;-1.80;99.90;;;;;;5036447;28;20249;-62
2023/01/19 07:07:41;;;;;;;5.57;4.10;;;-1.70;99.90;;;;;;5036522;28;20195;-64
2023/01/19 07:10:10;;;;;;;6.07;3.85;;;-1.70;99.90;;;;;;5046327;28;20190;-63
2023/01/19 07:12:36;;;;;;;4.88;4.38;;;-1.70;99.90;;;;;;5027765;28;20186;-62
2023/01/19 07:15:02;;;;;;;3.90;3.40;;;-1.60;99.90;;;;;;5036043;28;20685;-61
2023/01/19 07:17:28;;;;;;;5.83;5.13;;;-1.60;99.90;;;;;;5036180;28;20197;-62
2023/01/19 07:19:54;;;;;;;8.67;5.23;;;-1.60;99.90;;;;;;5035719;28;20436;-61
2023/01/19 07:22:19;;;;;;;4.60;3.03;;;-1.60;99.90;;;;;;5036091;28;20952;-61
2023/01/19 07:24:45;;;;;;;11.40;6.13;;;-1.50;99.90;;;;;;5034276;28;20229;-61
2023/01/19 07:27:10;;;;;;;7.03;3.90;;;-1.50;99.90;;;;;;5035943;28;20178;-61
2023/01/19 07:29:36;;;;;;;12.87;6.20;;;-1.50;99.90;;;;;;5035721;28;20195;-60
2023/01/19 07:32:02;;;;;;;4.45;4.00;;;-1.40;99.90;;;;;;5034919;28;20182;-63
2023/01/19 07:34:28;;;;;;;5.05;4.53;;;-1.40;99.90;;;;;;5035658;28;20232;-62
2023/01/19 07:36:55;;;;;;;4.47;4.10;;;-1.30;99.90;;;;;;5034722;28;20183;-61
2023/01/19 07:39:20;;;;;;;5.35;4.55;;;-1.20;99.90;;;;;;5035990;28;20225;-60
2023/01/19 07:41:49;;;;;;;6.60;5.07;;;-1.20;99.90;;;;;;5035481;28;20181;-59
2023/01/19 07:44:14;;;;;;;9.40;6.47;;;-1.10;99.90;;;;;;5034940;28;20336;-58
2023/01/19 07:46:42;;;;;;;7.57;5.80;;;-1.10;99.90;;;;;;5035784;28;20676;-61
2023/01/19 07:49:07;;;;;;;8.93;4.85;;;-1.10;99.90;;;;;;5032853;28;20427;-61
2023/01/19 07:51:33;;;;;;;5.50;4.20;;;-1.10;99.90;;;;;;5035243;28;20671;-60
2023/01/19 07:53:58;;;;;;;4.57;4.10;;;-1.00;99.90;;;;;;5034981;28;20323;-61
2023/01/19 07:56:26;;;;;;;7.27;4.70;;;-1.00;99.90;;;;;;5035459;28;20636;-60
2023/01/19 07:58:52;;;;;;;8.20;5.22;;;-1.00;99.90;;;;;;5034919;28;20715;-60
2023/01/19 08:01:17;;;;;;;6.83;5.70;;;-1.00;99.90;;;;;;5035362;28;20289;-61
2023/01/19 08:03:43;;;;;;;8.67;5.33;;;-1.10;99.90;;;;;;5035014;28;20198;-62
2023/01/19 08:06:20;;;;;;;5.37;4.60;;;-1.10;99.90;;;;;;5035440;28;20284;-64
2023/01/19 08:08:46;;;;;;;7.35;6.45;;;-1.00;99.90;;;;;;5035060;28;20458;-62
2023/01/19 08:11:11;;;;;;;6.70;5.13;;;-0.90;99.90;;;;;;5035035;28;20242;-61
2023/01/19 08:13:37;;;;;;;10.20;7.43;;;-0.80;99.90;;;;;;5035021;28;20251;-61
2023/01/19 08:16:03;;;;;;;8.07;5.97;;;-0.70;99.90;;;;;;5035155;28;20632;-60
2023/01/19 08:18:29;;;;;;;7.15;6.45;;;-0.50;99.90;;;;;;5034962;28;20171;-61
2023/01/19 08:20:57;;;;;;;6.07;5.47;;;-0.30;99.90;;;;;;5034959;28;20251;-64
2023/01/19 08:23:22;;;;;;;12.35;4.32;;;0.00;99.90;;;;;;5034422;28;20181;-63
2023/01/19 08:25:48;;;;;;;6.27;4.83;;;0.20;99.90;;;;;;5034578;28;20200;-61
2023/01/19 08:28:15;;;;;;;8.40;4.63;;;0.60;99.90;;;;;;5026268;28;20209;-61
2023/01/19 08:30:44;;;;;;;6.78;5.78;;;0.90;99.90;;;;;;5015061;28;20210;-62
2023/01/19 08:33:11;;;;;;;6.53;5.60;;;1.50;99.90;;;;;;5014851;28;20170;-62
2023/01/19 08:35:40;;;;;;;5.38;4.88;;;2.20;99.90;;;;;;5014980;28;20245;-61
2023/01/19 08:38:08;;;;;;;4.82;4.38;;;3.10;99.90;;;;;;5016312;28;20167;-62
2023/01/19 08:40:36;;;;;;;6.28;3.40;;;4.10;99.90;;;;;;5015033;28;20192;-62
2023/01/19 08:43:06;;;;;;;4.03;3.72;;;4.80;99.90;;;;;;5015092;28;20268;-63
2023/01/19 08:45:33;;;;;;;4.47;3.67;;;5.30;99.90;;;;;;5015701;28;20198;-62
2023/01/19 08:47:58;;;;;;;4.28;3.50;;;5.70;99.90;;;;;;5014417;28;20590;-61
2023/01/19 08:50:25;;;;;;;4.83;3.13;;;6.20;99.90;;;;;;5014869;28;20226;-63
2023/01/19 08:52:51;;;;;;;4.40;4.00;;;6.70;99.90;;;;;;5014745;28;20178;-61
2023/01/19 08:55:16;;;;;;;4.10;3.00;;;7.10;99.90;;;;;;5024886;28;20613;-63
2023/01/19 08:57:42;;;;;;;3.33;2.70;;;7.40;99.90;;;;;;5034660;28;20662;-61
2023/01/19 09:00:09;;;;;;;3.17;2.90;;;7.50;99.90;;;;;;5034764;28;20597;-63
2023/01/19 09:02:36;;;;;;;3.40;3.10;;;8.00;99.90;;;;;;5034456;28;20596;-63
2023/01/19 09:05:03;;;;;;;3.20;3.00;;;8.70;99.90;;;;;;5033900;28;20479;-63
2023/01/19 09:07:29;;;;;;;3.00;2.80;;;9.50;99.80;;;;;;5034065;28;20816;-61
2023/01/19 09:09:55;;;;;;;2.90;2.70;;;10.00;95.60;;;;;;5034556;28;20483;-63
2023/01/19 09:12:20;;;;;;;3.33;3.03;;;9.70;94.90;;;;;;5034471;28;20410;-62
2023/01/19 09:14:46;;;;;;;2.97;2.77;;;9.90;95.80;;;;;;5033877;28;20201;-63
2023/01/19 09:17:13;;;;;;;8.97;3.43;;;10.10;96.30;;;;;;5034163;28;20255;-63
2023/01/19 09:19:40;;;;;;;3.70;3.40;;;10.40;93.90;;;;;;5028485;28;20181;-64
2023/01/19 09:22:05;;;;;;;3.37;3.17;;;10.50;92.90;;;;;;5033992;28;20455;-64
2023/01/19 09:24:31;;;;;;;3.77;3.47;;;10.20;91.90;;;;;;5033511;28;20933;-60
2023/01/19 09:26:57;;;;;;;3.37;3.07;;;10.20;93.80;;;;;;5032917;28;20653;-63
2023/01/19 09:29:23;;;;;;;3.73;3.43;;;10.00;91.20;;;;;;5033942;28;20441;-61
2023/01/19 09:31:48;;;;;;;4.10;3.47;;;9.60;93.30;;;;;;5033993;28;20173;-62
2023/01/19 09:34:14;;;;;;;3.73;3.43;;;9.80;93.80;;;;;;5033205;28;20254;-61
2023/01/19 09:36:40;;;;;;;4.00;3.27;;;9.70;92.90;;;;;;5033030;28;20300;-64
2023/01/19 09:39:05;;;;;;;3.80;3.50;;;9.60;93.90;;;;;;5034385;28;20411;-61
2023/01/19 09:41:33;;;;;;;3.67;3.30;;;9.50;92.80;;;;;;5033663;28;20178;-63
2023/01/19 09:43:59;;;;;;;4.30;3.53;;;9.00;92.60;;;;;;5016654;28;20199;-63
2023/01/19 09:46:38;;;;;;;3.03;2.77;;;8.20;92.50;;;;;;5037845;28;20432;-62
2023/01/19 09:49:15;;;;;;;3.83;3.53;;;7.40;93.40;;;;;;5052526;28;20407;-62
2023/01/19 09:51:45;;;;;;;2.90;2.70;;;6.90;93.60;;;;;;5047045;28;20422;-61
2023/01/19 09:54:22;;;;;;;4.38;3.17;;;6.30;94.30;;;;;;5032811;28;20203;-61
2023/01/19 09:56:49;;;;;;;3.58;2.60;;;5.70;95.60;;;;;;5033559;28;20178;-63
2023/01/19 09:59:23;;;;;;;4.03;3.72;;;5.10;98.40;;;;;;5033575;28;20181;-65
2023/01/19 10:01:51;;;;;;;3.30;3.00;;;4.90;99.00;;;;;;5032990;28;20528;-60
2023/01/19 10:04:31;;;;;;;4.30;3.28;;;4.60;99.20;;;;;;5042872;28;20687;-62
2023/01/19 10:07:09;;;;;;;3.60;3.30;;;4.50;99.30;;;;;;5053078;28;20200;-64
2023/01/19 10:09:39;;;;;;;3.13;2.80;;;4.30;99.90;;;;;;5053415;28;20171;-61
2023/01/19 10:12:26;;;;;;;2.55;2.35;;;4.20;99.90;;;;;;5035511;28;20173;-63
2023/01/19 10:15:12;;;;;;;3.00;2.80;;;4.10;99.90;;;;;;5031540;28;20200;-60
2023/01/19 10:17:51;;;;;;;3.45;2.30;;;4.00;99.90;;;;;;5032192;28;20176;-61
2023/01/19 10:20:28;;;;;;;5.55;2.90;;;3.90;99.90;;;;;;5053515;28;20170;-62
2023/01/19 10:22:55;;;;;;;3.60;3.30;;;3.80;99.90;;;;;;5053236;28;20254;-63
2023/01/19 10:25:24;;;;;;;2.72;2.53;;;3.80;99.90;;;;;;5043571;28;20201;-62
2023/01/19 10:27:50;;;;;;;3.72;3.42;;;3.70;99.90;;;;;;5015350;28;20173;-59
2023/01/19 10:30:24;;;;;;;2.53;2.33;;;3.70;99.90;;;;;;5030170;28;20191;-61
2023/01/19 10:32:51;;;;;;;3.20;3.00;;;3.80;99.90;;;;;;5013065;28;20407;-60
2023/01/19 10:35:23;;;;;;;3.25;2.95;;;3.80;99.90;;;;;;5013190;28;20197;-64
2023/01/19 10:37:50;;;;;;;2.60;2.40;;;3.80;99.90;;;;;;5013517;28;20184;-61
2023/01/19 10:40:49;;;;;;;3.03;2.40;;;3.80;99.90;;;;;;5027224;28;20182;-63
2023/01/19 10:43:33;;;;;;;2.65;2.45;;;3.90;99.90;;;;;;5032282;28;20189;-63
2023/01/19 10:45:59;;;;;;;2.88;2.05;;;3.90;99.90;;;;;;5032888;28;20173;-60
2023/01/19 10:48:25;;;;;;;3.78;2.97;;;4.00;99.90;;;;;;5033097;28;20185;-63
2023/01/19 10:51:04;;;;;;;2.63;2.43;;;4.10;99.90;;;;;;5032767;28;20698;-61
2023/01/19 10:53:31;;;;;;;4.03;2.90;;;4.20;99.90;;;;;;5032425;28;20397;-64
2023/01/19 10:56:19;;;;;;;3.00;2.70;;;4.30;99.90;;;;;;5032474;28;20205;-62
2023/01/19 10:58:45;;;;;;;3.22;2.95;;;4.50;99.90;;;;;;5032801;28;20591;-59
2023/01/19 11:01:22;;;;;;;2.80;2.60;;;4.70;99.90;;;;;;5032977;28;20181;-61
2023/01/19 11:03:48;;;;;;;2.15;1.98;;;4.80;99.90;;;;;;5014791;28;20204;-63
2023/01/19 11:06:20;;;;;;;2.30;2.20;;;4.90;99.90;;;;;;5031198;28;20208;-65
2023/01/19 11:08:49;;;;;;;2.30;2.10;;;4.80;99.90;;;;;;5032413;28;20443;-63
2023/01/19 11:11:14;;;;;;;2.95;2.75;;;4.60;99.90;;;;;;5032916;28;20695;-62
2023/01/19 11:13:44;;;;;;;5.60;2.87;;;4.40;99.90;;;;;;5035991;28;20196;-64
2023/01/19 11:16:22;;;;;;;3.35;2.72;;;4.40;99.90;;;;;;5034993;28;20570;-61
2023/01/19 11:18:51;;;;;;;4.75;3.42;;;4.30;99.90;;;;;;5036412;28;20239;-62
2023/01/19 11:21:23;;;;;;;3.42;2.75;;;4.40;99.90;;;;;;5036439;28;20542;-62
2023/01/19 11:23:52;;;;;;;2.78;2.58;;;4.30;99.90;;;;;;5035958;28;20218;-64
2023/01/19 11:26:30;;;;;;;3.83;2.72;;;4.40;99.90;;;;;;5035955;28;20210;-61
2023/01/19 11:28:57;;;;;;;2.50;2.20;;;4.30;99.90;;;;;;5036096;28;20261;-59
2023/01/19 11:31:30;;;;;;;3.03;2.78;;;4.30;99.90;;;;;;5035989;28;20197;-63
2023/01/19 11:33:58;;;;;;;2.30;2.08;;;4.20;99.90;;;;;;5035767;28;20195;-61
2023/01/19 11:36:54;;;;;;;3.40;2.08;;;4.20;99.90;;;;;;5035869;28;20183;-61
2023/01/19 11:39:23;;;;;;;4.07;2.83;;;4.10;99.90;;;;;;5029653;28;20177;-61
2023/01/19 11:41:51;;;;;;;2.53;2.30;;;4.00;99.90;;;;;;5034604;28;20208;-62
2023/01/19 11:44:43;;;;;;;3.75;3.30;;;4.00;99.90;;;;;;5034493;28;20249;-61
2023/01/19 11:47:37;;;;;;;3.75;3.08;;;3.90;99.90;;;;;;5016131;28;20175;-62
2023/01/19 11:50:21;;;;;;;3.20;2.90;;;3.90;99.90;;;;;;5008155;28;20212;-64
2023/01/19 11:53:19;;;;;;;2.40;2.20;;;4.00;99.90;;;;;;5015829;28;20171;-60
2023/01/19 11:55:44;;;;;;;3.05;2.50;;;4.00;99.90;;;;;;4972198;28;20265;-61
2023/01/19 11:58:14;;;;;;;2.20;2.00;;;4.00;99.90;;;;;;5031715;28;20181;-63
2023/01/19 12:00:53;;;;;;;4.10;2.72;;;4.00;99.90;;;;;;5035804;28;20183;-62
2023/01/19 12:03:40;;;;;;;2.92;2.50;;;4.20;99.90;;;;;;5035353;28;20177;-63
2023/01/19 12:06:17;;;;;;;4.40;2.47;;;4.30;99.90;;;;;;5035466;28;20216;-63
2023/01/19 12:08:52;;;;;;;2.95;2.60;;;4.30;99.90;;;;;;5035554;28;20185;-64
2023/01/19 12:11:26;;;;;;;2.50;2.20;;;4.40;99.90;;;;;;5035278;28;20220;-61
2023/01/19 12:13:52;;;;;;;2.55;2.35;;;4.40;99.90;;;;;;5034581;28;20197;-61
2023/01/19 12:16:20;;;;;;;3.85;2.78;;;4.40;99.90;;;;;;5019630;28;20573;-61
2023/01/19 12:18:57;;;;;;;3.42;3.13;;;4.40;99.90;;;;;;5015495;28;20164;-62
2023/01/19 12:21:22;;;;;;;2.85;1.85;;;4.40;99.90;;;;;;5015413;28;20666;-63
2023/01/19 12:24:22;;;;;;;3.73;2.90;;;4.30;99.90;;;;;;5027119;28;20291;-63
2023/01/19 12:26:50;;;;;;;2.28;1.95;;;4.10;99.90;;;;;;5035172;28;20188;-62
2023/01/19 12:29:20;;;;;;;3.33;2.67;;;4.10;99.90;;;;;;5035030;28;20175;-60
2023/01/19 12:32:11;;;;;;;2.95;2.10;;;4.10;99.90;;;;;;5034968;28;20207;-61
2023/01/19 12:34:48;;;;;;;3.70;2.58;;;4.10;99.90;;;;;;5032245;28;20185;-67
2023/01/19 12:37:29;;;;;;;3.47;3.03;;;4.00;99.90;;;;;;5034604;28;20774;-61
2023/01/19 12:40:24;;;;;;;2.97;2.45;;;3.90;99.90;;;;;;5035805;28;20174;-59
2023/01/19 12:43:04;;;;;;;3.00;2.80;;;3.80;99.90;;;;;;5027979;28;20222;-62
2023/01/19 12:45:33;;;;;;;2.28;2.15;;;3.70;99.90;;;;;;5019578;28;20210;-61
2023/01/19 12:48:00;;;;;;;3.20;2.95;;;3.50;99.90;;;;;;5038097;28;20260;-60
2023/01/19 12:50:28;;;;;;;4.63;3.78;;;3.50;99.90;;;;;;5035537;28;20195;-61
2023/01/19 12:53:01;;;;;;;3.67;3.33;;;3.50;99.90;;;;;;5024224;28;20170;-59
2023/01/19 12:55:37;;;;;;;3.30;2.63;;;3.50;99.90;;;;;;5028800;28;20202;-60
2023/01/19 12:58:12;;;;;;;2.92;2.65;;;3.40;99.90;;;;;;5034851;28;20529;-61
2023/01/19 13:00:40;;;;;;;2.85;2.65;;;3.40;99.90;;;;;;5022020;28;20221;-59
2023/01/19 13:03:17;;;;;;;2.33;2.13;;;3.40;99.90;;;;;;5014334;28;20623;-61
2023/01/19 13:05:43;;;;;;;3.05;2.55;;;3.40;99.90;;;;;;5028862;28;20220;-59
2023/01/19 13:08:08;;;;;;;3.30;3.00;;;3.40;99.90;;;;;;5026864;28;20520;-60
2023/01/19 13:11:01;;;;;;;8.03;2.97;;;3.30;99.90;;;;;;5032478;28;20195;-62
2023/01/19 13:13:37;;;;;;;3.42;3.13;;;3.30;99.90;;;;;;5030746;28;20173;-61
2023/01/19 13:16:18;;;;;;;2.78;2.58;;;3.20;99.90;;;;;;5031167;28;20185;-60
2023/01/19 13:18:47;;;;;;;6.30;2.90;;;3.30;99.90;;;;;;5034224;28;20171;-61
2023/01/19 13:21:24;;;;;;;3.90;2.72;;;3.30;99.90;;;;;;5033536;28;20174;-63
2023/01/19 13:23:53;;;;;;;4.60;3.28;;;3.20;99.90;;;;;;5028378;28;20249;-62
2023/01/19 13:26:20;;;;;;;2.63;2.42;;;3.20;99.90;;;;;;5014333;28;20631;-61
2023/01/19 13:28:53;;;;;;;3.50;3.20;;;3.10;99.90;;;;;;5027610;28;20182;-62
2023/01/19 13:31:20;;;;;;;2.83;2.53;;;3.00;99.90;;;;;;5038797;28;20191;-63
2023/01/19 13:33:55;;;;;;;4.45;4.05;;;2.90;99.90;;;;;;5033195;28;20193;-61
2023/01/19 13:36:35;;;;;;;3.13;2.92;;;2.90;99.90;;;;;;5015245;28;20200;-62
2023/01/19 13:39:05;;;;;;;4.88;4.47;;;2.80;99.90;;;;;;5030302;28;20174;-62
2023/01/19 13:41:36;;;;;;;5.72;4.32;;;2.80;99.90;;;;;;5013695;28;20202;-63
2023/01/19 13:44:18;;;;;;;3.35;3.05;;;2.70;99.90;;;;;;5013578;28;20186;-61
2023/01/19 13:46:45;;;;;;;4.88;3.25;;;2.60;99.90;;;;;;5027344;28;20188;-60
2023/01/19 13:49:23;;;;;;;3.80;3.40;;;2.70;99.90;;;;;;5033175;28;20514;-60
2023/01/19 13:52:12;;;;;;;5.40;3.55;;;2.70;99.90;;;;;;5031327;28;20195;-61
2023/01/19 13:54:51;;;;;;;4.40;3.25;;;2.70;99.90;;;;;;5033031;28;20278;-63
2023/01/19 13:57:23;;;;;;;5.40;4.03;;;2.70;99.90;;;;;;5033457;28;20181;-62
2023/01/19 14:00:10;;;;;;;4.03;3.72;;;2.70;99.90;;;;;;5031957;28;20189;-63
2023/01/19 14:02:55;;;;;;;4.38;3.97;;;2.70;99.90;;;;;;5033308;28;20180;-62
2023/01/19 14:05:32;;;;;;;7.95;3.72;;;2.80;99.90;;;;;;5032880;28;20198;-63
2023/01/19 14:08:11;;;;;;;3.45;3.10;;;2.80;99.90;;;;;;5032993;28;20252;-60
2023/01/19 14:10:40;;;;;;;4.25;2.88;;;2.90;99.90;;;;;;5016340;28;20675;-59
2023/01/19 14:13:19;;;;;;;3.65;3.28;;;2.80;99.90;;;;;;5032814;28;20170;-61
2023/01/19 14:15:46;;;;;;;4.45;4.00;;;2.80;99.90;;;;;;5032390;28;20238;-60
2023/01/19 14:18:18;;;;;;;4.15;3.47;;;2.80;99.90;;;;;;5033101;28;20254;-62
2023/01/19 14:20:56;;;;;;;4.82;3.50;;;2.80;99.90;;;;;;5033519;28;20213;-59
2023/01/19 14:23:38;;;;;;;4.43;3.30;;;2.80;99.90;;;;;;5032788;28;20202;-61
2023/01/19 14:26:04;;;;;;;3.45;2.90;;;2.90;99.90;;;;;;5031973;28;20189;-61
2023/01/19 14:28:42;;;;;;;4.32;3.92;;;2.90;99.90;;;;;;5032672;28;20174;-62
2023/01/19 14:31:22;;;;;;;4.10;3.70;;;2.80;99.90;;;;;;5032375;28;20205;-60
2023/01/19 14:33:54;;;;;;;4.47;3.35;;;2.80;99.90;;;;;;5034723;28;20200;-61
2023/01/19 14:36:22;;;;;;;4.63;4.22;;;2.80;99.90;;;;;;5052892;28;20196;-61
2023/01/19 14:38:50;;;;;;;4.45;4.13;;;2.70;99.90;;;;;;5053036;28;20169;-65
2023/01/19 14:41:37;;;;;;;4.47;4.18;;;2.70;99.90;;;;;;5049583;28;20174;-62
2023/01/19 14:44:11;;;;;;;4.35;3.15;;;2.70;99.90;;;;;;5024221;28;20195;-62
2023/01/19 14:46:42;;;;;;;3.67;3.38;;;2.70;99.90;;;;;;5014343;28;20245;-61
2023/01/19 14:49:21;;;;;;;4.63;2.55;;;2.70;99.90;;;;;;5031151;28;20170;-61
2023/01/19 14:51:48;;;;;;;5.80;5.05;;;2.70;99.90;;;;;;5036766;28;20229;-61
2023/01/19 14:54:28;;;;;;;5.05;4.45;;;2.70;99.90;;;;;;5036207;28;20374;-60
2023/01/19 14:56:53;;;;;;;5.25;4.28;;;2.60;99.90;;;;;;5036717;28;20178;-60
2023/01/19 14:59:19;;;;;;;5.30;4.20;;;2.60;99.90;;;;;;5036756;28;20177;-59
2023/01/19 15:01:44;;;;;;;4.63;3.80;;;2.60;99.90;;;;;;5036739;28;20604;-62
2023/01/19 15:04:10;;;;;;;4.93;4.00;;;2.60;99.90;;;;;;5035725;28;20189;-61
2023/01/19 15:06:40;;;;;;;7.07;4.70;;;2.60;99.90;;;;;;5035962;28;20198;-62
2023/01/19 15:09:08;;;;;;;4.07;3.78;;;2.60;99.90;;;;;;5037041;28;20210;-60
2023/01/19 15:11:34;;;;;;;5.82;4.88;;;2.60;99.90;;;;;;5036262;28;20236;-61
2023/01/19 15:14:01;;;;;;;19.08;7.82;;;2.50;99.90;;;;;;5036193;28;20194;-61
2023/01/19 15:16:30;;;;;;;5.97;4.13;;;2.50;99.90;;;;;;5031024;28;20182;-63
2023/01/19 15:18:55;;;;;;;4.03;3.63;;;2.50;99.90;;;;;;5016400;28;20214;-61
2023/01/19 15:21:27;;;;;;;7.00;4.73;;;2.50;99.90;;;;;;5016252;28;20210;-61
2023/01/19 15:23:54;;;;;;;3.53;3.00;;;2.50;99.90;;;;;;5016179;28;20203;-60
2023/01/19 15:26:22;;;;;;;4.03;3.60;;;2.40;99.90;;;;;;5022744;28;20178;-61
2023/01/19 15:28:48;;;;;;;6.53;4.32;;;2.40;99.90;;;;;;5032561;28;20539;-66
2023/01/19 15:31:16;;;;;;;5.38;4.57;;;2.40;99.90;;;;;;5034605;28;20296;-60
2023/01/19 15:33:42;;;;;;;7.13;5.40;;;2.40;99.90;;;;;;5033391;28;20178;-61
2023/01/19 15:36:13;;;;;;;5.40;4.57;;;2.40;99.90;;;;;;5017651;28;20170;-62
2023/01/19 15:38:38;;;;;;;8.80;5.03;;;2.40;99.90;;;;;;5033953;28;20182;-61
2023/01/19 15:41:14;;;;;;;4.93;4.43;;;2.30;99.90;;;;;;5034434;28;20656;-61
2023/01/19 15:43:40;;;;;;;7.22;4.50;;;2.40;99.90;;;;;;5024064;28;20181;-63
2023/01/19 15:46:06;;;;;;;5.13;4.50;;;2.40;99.90;;;;;;5035139;28;20166;-61
2023/01/19 15:48:32;;;;;;;3.97;3.45;;;2.40;99.90;;;;;;5035205;28;20640;-59
2023/01/19 15:50:57;;;;;;;3.87;3.57;;;2.40;99.90;;;;;;5034471;28;20202;-60
2023/01/19 15:53:24;;;;;;;4.03;3.73;;;2.40;99.90;;;;;;5034776;28;20227;-59
2023/01/19 15:55:52;;;;;;;9.18;4.82;;;2.40;99.90;;;;;;5034281;28;20178;-59
2023/01/19 15:58:19;;;;;;;5.97;4.95;;;2.50;99.90;;;;;;5035279;28;20170;-62
2023/01/19 16:00:51;;;;;;;3.47;3.17;;;2.40;99.90;;;;;;5034883;28;20295;-62
2023/01/19 16:03:16;;;;;;;4.63;3.42;;;2.30;99.90;;;;;;5037547;28;20650;-63
2023/01/19 16:05:42;;;;;;;6.00;4.33;;;2.30;99.90;;;;;;5036864;28;20292;-63
2023/01/19 16:08:08;;;;;;;7.53;5.00;;;2.30;99.90;;;;;;5034394;28;20170;-62
2023/01/19 16:10:34;;;;;;;6.47;4.33;;;2.40;99.90;;;;;;5034739;28;20307;-60
2023/01/19 16:12:59;;;;;;;5.10;4.60;;;2.40;99.90;;;;;;5034115;28;20467;-62
2023/01/19 16:15:26;;;;;;;9.77;4.73;;;2.30;99.90;;;;;;5033860;28;20252;-60
2023/01/19 16:17:51;;;;;;;4.72;4.30;;;2.20;99.90;;;;;;5034609;28;20524;-63
2023/01/19 16:20:17;;;;;;;8.40;5.00;;;2.20;99.90;;;;;;5033989;28;20249;-62
2023/01/19 16:22:43;;;;;;;5.23;4.73;;;2.10;99.90;;;;;;5033908;28;20578;-62
2023/01/19 16:25:09;;;;;;;8.20;5.80;;;2.00;99.90;;;;;;5034236;28;20221;-62
2023/01/19 16:27:34;;;;;;;6.55;5.93;;;1.90;99.90;;;;;;5034319;28;20178;-62
2023/01/19 16:30:03;;;;;;;5.47;4.87;;;1.90;99.90;;;;;;5034352;28;20552;-64
2023/01/19 16:32:31;;;;;;;7.75;4.97;;;1.90;99.90;;;;;;5034537;28;20189;-61
2023/01/19 16:34:56;;;;;;;4.80;4.28;;;1.90;99.90;;;;;;5033179;28;20529;-60
2023/01/19 16:37:24;;;;;;;8.20;4.13;;;1.90;99.90;;;;;;5034100;28;20300;-62
2023/01/19 16:39:50;;;;;;;6.65;4.25;;;1.90;99.90;;;;;;5016299;28;20174;-61
2023/01/19 16:42:16;;;;;;;7.17;5.17;;;1.80;99.90;;;;;;5033532;28;20177;-60
2023/01/19 16:44:42;;;;;;;5.20;4.00;;;1.80;99.90;;;;;;5033421;28;20529;-62
2023/01/19 16:47:07;;;;;;;12.03;4.50;;;1.80;99.90;;;;;;5034304;28;20182;-60
2023/01/19 16:49:33;;;;;;;5.40;4.50;;;1.80;99.90;;;;;;5013891;28;20174;-62
2023/01/19 16:51:59;;;;;;;6.57;5.33;;;1.70;99.90;;;;;;5030183;28;20178;-59
2023/01/19 16:54:26;;;;;;;6.90;5.10;;;1.70;99.90;;;;;;5032924;28;20472;-62
2023/01/19 16:56:54;;;;;;;6.50;4.70;;;1.70;99.90;;;;;;5032567;28;20567;-61
2023/01/19 16:59:21;;;;;;;4.10;3.80;;;1.70;99.90;;;;;;5031992;28;20185;-60
2023/01/19 17:01:49;;;;;;;8.20;5.85;;;1.70;99.90;;;;;;5032254;28;20174;-61
2023/01/19 17:04:15;;;;;;;4.72;4.05;;;1.70;99.90;;;;;;5032733;28;20251;-58
2023/01/19 17:06:41;;;;;;;9.07;5.30;;;1.70;99.90;;;;;;5032981;28;20500;-62
2023/01/19 17:09:08;;;;;;;5.13;4.60;;;1.70;99.90;;;;;;5015429;28;20273;-61
2023/01/19 17:11:34;;;;;;;4.25;3.85;;;1.70;99.90;;;;;;5015513;28;20229;-61
2023/01/19 17:14:02;;;;;;;5.72;4.15;;;1.70;99.90;;;;;;5032801;28;20194;-59
2023/01/19 17:16:30;;;;;;;5.00;4.50;;;1.70;99.90;;;;;;5018422;28;20569;-63
2023/01/19 17:18:57;;;;;;;7.03;5.10;;;1.70;99.90;;;;;;5025015;28;20261;-62
2023/01/19 17:21:23;;;;;;;5.22;4.15;;;1.60;99.90;;;;;;5033123;28;20560;-63
2023/01/19 17:23:50;;;;;;;5.73;4.03;;;1.60;99.90;;;;;;5032929;28;20193;-63
2023/01/19 17:26:16;;;;;;;5.20;4.57;;;1.60;99.90;;;;;;5031906;28;20537;-62
2023/01/19 17:28:43;;;;;;;5.03;4.00;;;1.60;99.90;;;;;;5032835;28;20174;-64
2023/01/19 17:31:12;;;;;;;5.32;4.57;;;1.50;99.90;;;;;;5024342;28;20205;-63
2023/01/19 17:33:38;;;;;;;8.68;5.28;;;1.50;99.90;;;;;;5012935;28;20159;-63
2023/01/19 17:36:11;;;;;;;5.47;4.97;;;1.50;99.90;;;;;;5025777;28;20175;-61
2023/01/19 17:38:36;;;;;;;5.57;4.65;;;1.50;99.90;;;;;;5030855;28;20280;-62
2023/01/19 17:41:14;;;;;;;6.30;4.20;;;1.50;99.90;;;;;;5032968;28;20312;-61
2023/01/19 17:43:40;;;;;;;8.07;6.30;;;1.50;99.90;;;;;;5014859;28;20178;-63
2023/01/19 17:46:05;;;;;;;7.13;4.67;;;1.50;99.90;;;;;;5033335;28;20174;-63
2023/01/19 17:48:31;;;;;;;8.63;5.40;;;1.50;99.90;;;;;;5033083;28;21000;-58
2023/01/19 17:51:10;;;;;;;9.00;5.90;;;1.40;99.90;;;;;;5032955;28;20475;-62
2023/01/19 17:53:37;;;;;;;6.30;4.95;;;1.40;99.90;;;;;;5032739;28;20177;-64
2023/01/19 17:56:03;;;;;;;5.57;5.07;;;1.40;99.90;;;;;;5032244;28;20182;-62
2023/01/19 17:58:30;;;;;;;6.07;5.38;;;1.50;99.90;;;;;;5033665;28;20220;-61
2023/01/19 18:00:56;;;;;;;7.95;5.25;;;1.50;99.90;;;;;;5032833;28;20204;-61
2023/01/19 18:03:22;;;;;;;9.95;5.75;;;1.40;99.90;;;;;;5033163;28;20265;-63
2023/01/19 18:05:54;;;;;;;6.40;5.83;;;1.40;99.90;;;;;;5032930;28;20629;-62
2023/01/19 18:08:20;;;;;;;6.28;5.28;;;1.30;99.90;;;;;;5033231;28;20178;-63
2023/01/19 18:10:56;;;;;;;5.85;4.57;;;1.30;99.90;;;;;;5032884;28;20201;-63